Portada
METAR-TAF:

METAR-TAF

Aeroports :

Soldotna, Alaska, Estats Units d'Amèrica

latitud: 60-29N, longitud: 151-02W, altitud: 33 m

Observació

L'informe es va fer fa 15 hores i 16 minuts, a les 08:56 UTC
Vent calma
Temperatura 12°C
Humitat 94%
Pressió 1008 hPa
Visibilitat: 16.1 km
Cel ennuvolat a una alçada de 6500 ft
Cel cobert a una alçada de 9500 ft

METAR: PASX 090856Z AUTO 00000KT 10SM BKN065 OVC095 12/11 A2977 RMK AO2 SLP089 T01170111 401610083 58002

Hora: 16:12 (00:12 UTC)


TAF: manca

Observacions i pronòstics meteorològics de més de 4000 aeroports (METAR i TAF).

Les estacions disponibles són els punts grocs i vermells al mapa.

Posi el ratolí al punt desitjat per veure el nom de l'estació.

Feu clic per veure les observacions i els pronòstics meteorològics.

Per canviar el mapa: feu clic els botons verds amb una creu de color negre per apropar; al botó verd amb un guió per allunyar la imatge; o en les fletxes verdes per a mapes adjacents.


METAR-TAF: